Time;durP1;ratioP1;P1;durP2;ratioP2;P2;SDS_P1;SDS_P2;PMS_P1;PMS_P2;Temp;Humidity;BMP_temperature;BMP_pressure;BME280_temperature;BME280_humidity;BME280_pressure;Samples;Min_cycle;Max_cycle;Signal;HPM_P1;HPM_P2
2022/04/19 00:01:22;;;;;;;48.25;16.23;;;;;;;;;;5024825;28;20026;-42
2022/04/19 00:03:48;;;;;;;63.97;21.75;;;;;;;;;;5023671;28;20021;-42
2022/04/19 00:06:15;;;;;;;57.95;19.75;;;;;;;;;;5023607;28;20049;-40
2022/04/19 00:08:41;;;;;;;50.70;18.63;;;;;;;;;;5023748;28;20167;-40
2022/04/19 00:11:07;;;;;;;39.20;13.90;;;;;;;;;;5023875;28;20297;-42
2022/04/19 00:13:33;;;;;;;45.13;16.52;;;;;;;;;;5023946;28;20513;-42
2022/04/19 00:15:59;;;;;;;46.97;17.33;;;;;;;;;;5023809;28;20033;-40
2022/04/19 00:18:27;;;;;;;44.97;18.48;;;;;;;;;;5042010;28;20036;-39
2022/04/19 00:20:54;;;;;;;46.58;22.90;;;;;;;;;;5075490;28;20038;-41
2022/04/19 00:23:21;;;;;;;44.72;21.58;;;;;;;;;;5075196;28;20110;-43
2022/04/19 00:25:52;;;;;;;57.30;30.33;;;;;;;;;;5075288;28;20472;-43
2022/04/19 00:28:19;;;;;;;50.47;25.45;;;;;;;;;;5075201;28;20033;-42
2022/04/19 00:30:47;;;;;;;40.88;21.33;;;;;;;;;;5075263;28;20025;-41
2022/04/19 00:33:13;;;;;;;40.55;21.50;;;;;;;;;;5075322;28;20372;-39
2022/04/19 00:35:39;;;;;;;39.03;20.88;;;;;;;;;;5075132;28;20475;-39
2022/04/19 00:38:05;;;;;;;43.03;21.42;;;;;;;;;;5075083;28;20082;-40
2022/04/19 00:40:32;;;;;;;82.30;42.05;;;;;;;;;;5075150;28;20082;-39
2022/04/19 00:42:58;;;;;;;48.67;19.00;;;;;;;;;;5074988;28;20028;-41
2022/04/19 00:45:24;;;;;;;45.25;21.40;;;;;;;;;;5074804;28;20027;-41
2022/04/19 00:47:51;;;;;;;40.33;18.73;;;;;;;;;;5074691;28;20039;-43
2022/04/19 00:50:18;;;;;;;61.53;28.73;;;;;;;;;;5075024;28;20035;-42
2022/04/19 00:52:44;;;;;;;46.45;22.00;;;;;;;;;;5075024;28;20111;-42
2022/04/19 00:55:11;;;;;;;52.25;25.20;;;;;;;;;;5068896;28;20021;-42
2022/04/19 00:57:40;;;;;;;55.10;27.42;;;;;;;;;;5074568;28;20034;-39
2022/04/19 01:00:09;;;;;;;45.67;23.52;;;;;;;;;;5074701;28;20047;-42
2022/04/19 01:02:36;;;;;;;51.75;24.80;;;;;;;;;;5074746;28;20388;-42
2022/04/19 01:05:03;;;;;;;51.33;23.00;;;;;;;;;;5074059;28;20024;-39
2022/04/19 01:07:30;;;;;;;59.25;24.67;;;;;;;;;;5074953;28;20542;-45
2022/04/19 01:09:56;;;;;;;70.22;31.25;;;;;;;;;;5074447;28;20035;-43
2022/04/19 01:15:13;;;;;;;101.20;41.45;;;;;;;;;;5074515;28;20036;-42
2022/04/19 01:17:42;;;;;;;98.40;41.55;;;;;;;;;;5074125;28;20028;-42
2022/04/19 01:20:09;;;;;;;82.60;37.10;;;;;;;;;;5074345;28;20027;-42
2022/04/19 01:22:35;;;;;;;77.50;34.17;;;;;;;;;;5074152;28;20021;-39
2022/04/19 01:25:04;;;;;;;81.00;34.08;;;;;;;;;;5074235;28;20439;-43
2022/04/19 01:27:30;;;;;;;63.50;28.40;;;;;;;;;;5074085;28;20111;-39
2022/04/19 01:30:02;;;;;;;63.80;26.83;;;;;;;;;;5073764;28;20528;-39
2022/04/19 01:32:31;;;;;;;59.63;26.63;;;;;;;;;;5074105;28;20086;-40
2022/04/19 01:35:12;;;;;;;53.47;25.42;;;;;;;;;;5073821;28;20503;-42
2022/04/19 01:37:40;;;;;;;53.58;23.75;;;;;;;;;;5073919;28;20040;-40
2022/04/19 01:40:17;;;;;;;52.58;23.42;;;;;;;;;;5073829;28;20021;-39
2022/04/19 01:42:50;;;;;;;50.85;24.50;;;;;;;;;;5074035;28;20082;-39
2022/04/19 01:45:19;;;;;;;47.10;23.17;;;;;;;;;;5073767;28;20021;-40
2022/04/19 01:47:45;;;;;;;59.97;27.23;;;;;;;;;;5073787;28;20519;-39
2022/04/19 01:50:13;;;;;;;44.90;21.67;;;;;;;;;;5073513;28;20551;-40
2022/04/19 01:52:39;;;;;;;48.05;24.13;;;;;;;;;;5073763;28;20025;-38
2022/04/19 01:55:07;;;;;;;50.13;22.00;;;;;;;;;;5073477;28;20036;-42
2022/04/19 01:57:33;;;;;;;48.17;22.52;;;;;;;;;;5073670;28;20036;-40
2022/04/19 02:00:06;;;;;;;43.25;20.30;;;;;;;;;;5073381;28;20085;-41
2022/04/19 02:02:32;;;;;;;41.50;19.20;;;;;;;;;;5073850;28;20035;-43
2022/04/19 02:05:00;;;;;;;42.95;19.10;;;;;;;;;;5073446;28;20103;-40
2022/04/19 02:07:27;;;;;;;37.22;17.05;;;;;;;;;;5073806;28;20032;-39
2022/04/19 02:09:53;;;;;;;34.63;18.40;;;;;;;;;;5073412;28;20028;-39
2022/04/19 02:12:19;;;;;;;35.78;16.40;;;;;;;;;;5073590;28;20024;-41
2022/04/19 02:14:45;;;;;;;31.98;16.90;;;;;;;;;;5073440;28;20024;-38
2022/04/19 02:17:11;;;;;;;33.00;17.33;;;;;;;;;;5072409;28;20024;-39
2022/04/19 02:19:38;;;;;;;34.13;17.00;;;;;;;;;;5073381;28;20156;-40
2022/04/19 02:22:06;;;;;;;31.42;17.17;;;;;;;;;;5073434;28;20048;-39
2022/04/19 02:24:33;;;;;;;42.95;20.55;;;;;;;;;;5073271;28;20103;-38
2022/04/19 02:26:59;;;;;;;44.35;20.45;;;;;;;;;;5073296;28;20082;-38
2022/04/19 02:29:28;;;;;;;35.28;19.63;;;;;;;;;;5072173;28;20041;-40
2022/04/19 02:31:54;;;;;;;40.35;19.13;;;;;;;;;;5073153;28;20497;-39
2022/04/19 02:34:21;;;;;;;36.38;17.33;;;;;;;;;;5073292;28;20020;-39
2022/04/19 02:36:53;;;;;;;33.97;16.00;;;;;;;;;;5073376;28;20029;-40
2022/04/19 02:39:20;;;;;;;31.33;15.20;;;;;;;;;;5073111;28;20043;-39
2022/04/19 02:41:46;;;;;;;29.80;15.98;;;;;;;;;;5073312;28;20024;-38
2022/04/19 02:44:13;;;;;;;29.73;16.10;;;;;;;;;;5073283;28;20036;-39
2022/04/19 02:46:39;;;;;;;26.30;13.85;;;;;;;;;;5073131;28;20028;-39
2022/04/19 02:49:05;;;;;;;27.65;15.00;;;;;;;;;;5072766;28;20056;-39
2022/04/19 02:51:35;;;;;;;26.13;14.18;;;;;;;;;;5073099;28;20021;-38
2022/04/19 02:54:01;;;;;;;25.08;14.63;;;;;;;;;;5072903;28;20028;-39
2022/04/19 02:56:27;;;;;;;27.45;14.68;;;;;;;;;;5073130;28;20486;-39
2022/04/19 02:58:53;;;;;;;27.13;13.80;;;;;;;;;;5072951;28;20068;-39
2022/04/19 03:01:20;;;;;;;26.92;13.90;;;;;;;;;;5072915;28;20021;-38
2022/04/19 03:03:46;;;;;;;27.55;15.00;;;;;;;;;;5072976;28;20024;-40
2022/04/19 03:06:12;;;;;;;34.80;18.13;;;;;;;;;;5073007;28;20021;-38
2022/04/19 03:08:38;;;;;;;32.28;17.48;;;;;;;;;;5072766;28;20028;-41
2022/04/19 03:11:07;;;;;;;29.63;15.88;;;;;;;;;;5072923;28;20035;-44
2022/04/19 03:13:33;;;;;;;28.30;16.20;;;;;;;;;;5072964;28;20024;-39
2022/04/19 03:15:59;;;;;;;24.30;13.02;;;;;;;;;;5072853;28;20027;-39
2022/04/19 03:18:26;;;;;;;29.00;16.48;;;;;;;;;;5072759;28;20046;-38
2022/04/19 03:20:52;;;;;;;26.23;14.27;;;;;;;;;;5072740;28;20016;-39
2022/04/19 03:28:47;;;;;;;24.42;14.45;;;;;;;;;;5074425;28;20048;-39
2022/04/19 03:31:14;;;;;;;31.38;15.70;;;;;;;;;;5076481;28;20016;-43
2022/04/19 03:33:40;;;;;;;27.33;14.93;;;;;;;;;;5076206;28;20029;-41
2022/04/19 03:36:11;;;;;;;27.60;15.82;;;;;;;;;;5076282;28;20025;-40
2022/04/19 03:38:37;;;;;;;29.80;15.57;;;;;;;;;;5076390;28;20049;-41
2022/04/19 03:41:03;;;;;;;29.10;15.63;;;;;;;;;;5076254;28;20255;-43
2022/04/19 03:43:32;;;;;;;29.02;15.07;;;;;;;;;;5076304;28;20059;-39
2022/04/19 03:45:58;;;;;;;25.83;15.73;;;;;;;;;;5076438;28;20059;-39
2022/04/19 03:48:24;;;;;;;31.20;14.52;;;;;;;;;;5075765;28;20047;-38
2022/04/19 03:50:51;;;;;;;27.73;15.35;;;;;;;;;;5075972;28;20029;-39
2022/04/19 03:53:17;;;;;;;29.52;16.38;;;;;;;;;;5076053;28;20040;-38
2022/04/19 03:55:43;;;;;;;29.98;15.95;;;;;;;;;;5076076;28;20032;-38
2022/04/19 03:58:09;;;;;;;30.92;15.88;;;;;;;;;;5075818;28;20480;-38
2022/04/19 04:00:35;;;;;;;26.98;14.75;;;;;;;;;;5075850;28;20063;-39
2022/04/19 04:03:06;;;;;;;25.77;15.00;;;;;;;;;;5076080;28;20024;-39
2022/04/19 04:05:32;;;;;;;24.77;14.90;;;;;;;;;;5076101;28;20048;-39
2022/04/19 04:07:59;;;;;;;33.63;17.52;;;;;;;;;;5075859;28;20031;-39
2022/04/19 04:10:25;;;;;;;31.10;16.70;;;;;;;;;;5075748;28;20032;-43
2022/04/19 04:12:51;;;;;;;24.67;14.55;;;;;;;;;;5075631;28;20048;-41
2022/04/19 04:15:17;;;;;;;32.45;17.08;;;;;;;;;;5075604;28;20056;-41
2022/04/19 04:17:43;;;;;;;29.67;16.38;;;;;;;;;;5074038;28;20139;-39
2022/04/19 04:20:10;;;;;;;30.30;16.33;;;;;;;;;;5075283;28;20028;-39
2022/04/19 04:22:36;;;;;;;29.05;14.43;;;;;;;;;;5075486;28;20031;-38
2022/04/19 04:25:02;;;;;;;25.77;14.02;;;;;;;;;;5075513;28;20024;-39
2022/04/19 04:27:29;;;;;;;29.10;14.55;;;;;;;;;;5075295;28;20017;-39
2022/04/19 04:29:55;;;;;;;26.80;14.48;;;;;;;;;;5075265;28;20118;-39
2022/04/19 04:32:23;;;;;;;21.10;13.13;;;;;;;;;;5075414;28;20058;-40
2022/04/19 04:34:49;;;;;;;20.15;13.60;;;;;;;;;;5075045;28;20492;-43
2022/04/19 04:37:15;;;;;;;21.17;13.50;;;;;;;;;;5075243;28;20029;-39
2022/04/19 04:39:41;;;;;;;23.92;14.65;;;;;;;;;;5074565;28;20107;-43
2022/04/19 04:42:07;;;;;;;27.08;14.88;;;;;;;;;;5074934;28;20108;-39
2022/04/19 04:44:36;;;;;;;24.73;14.48;;;;;;;;;;5075005;28;20031;-39
2022/04/19 04:49:46;;;;;;;50.28;24.17;;;;;;;;;;5074817;28;20503;-40
2022/04/19 04:52:14;;;;;;;62.25;27.40;;;;;;;;;;5074832;28;20020;-39
2022/04/19 04:54:40;;;;;;;75.45;35.13;;;;;;;;;;5074663;28;20475;-40
2022/04/19 04:57:07;;;;;;;107.32;46.45;;;;;;;;;;5074554;28;20028;-39
2022/04/19 04:59:34;;;;;;;109.32;46.05;;;;;;;;;;5074569;28;20098;-39
2022/04/19 05:02:01;;;;;;;101.20;45.95;;;;;;;;;;5074757;28;20070;-39
2022/04/19 05:04:27;;;;;;;112.53;45.75;;;;;;;;;;5074506;28;20526;-39
2022/04/19 05:06:53;;;;;;;122.93;48.42;;;;;;;;;;5074476;28;20103;-39
2022/04/19 05:09:19;;;;;;;129.68;54.15;;;;;;;;;;5074606;28;20016;-39
2022/04/19 05:11:52;;;;;;;134.35;51.47;;;;;;;;;;5074543;28;20025;-40
2022/04/19 05:14:18;;;;;;;119.57;47.47;;;;;;;;;;5074308;28;20075;-39
2022/04/19 05:16:45;;;;;;;109.43;46.83;;;;;;;;;;5074331;28;20023;-40
2022/04/19 05:19:11;;;;;;;107.05;45.47;;;;;;;;;;5074350;28;20115;-40
2022/04/19 05:21:37;;;;;;;91.55;39.50;;;;;;;;;;5074165;28;20387;-40
2022/04/19 05:24:09;;;;;;;100.78;39.83;;;;;;;;;;5074059;28;20479;-38
2022/04/19 05:26:36;;;;;;;87.30;38.05;;;;;;;;;;5073939;28;20055;-38
2022/04/19 05:29:02;;;;;;;93.18;36.45;;;;;;;;;;5073779;28;20029;-38
2022/04/19 05:31:28;;;;;;;80.95;34.85;;;;;;;;;;5074009;28;20017;-39
2022/04/19 05:33:54;;;;;;;86.28;36.42;;;;;;;;;;5073912;28;20149;-43
2022/04/19 05:36:22;;;;;;;80.10;36.50;;;;;;;;;;5073763;28;20028;-40
2022/04/19 05:38:52;;;;;;;78.22;32.88;;;;;;;;;;5073731;28;20039;-40
2022/04/19 05:41:19;;;;;;;73.47;33.22;;;;;;;;;;5073747;28;20020;-39
2022/04/19 05:43:46;;;;;;;66.68;27.25;;;;;;;;;;5073733;28;20029;-40
2022/04/19 05:46:12;;;;;;;63.10;29.85;;;;;;;;;;5073637;28;20012;-41
2022/04/19 05:48:38;;;;;;;64.95;28.73;;;;;;;;;;5073774;28;20059;-39
2022/04/19 05:51:04;;;;;;;72.78;30.50;;;;;;;;;;5073457;28;20019;-39
2022/04/19 05:53:31;;;;;;;70.57;31.02;;;;;;;;;;5073665;28;20025;-39
2022/04/19 05:55:57;;;;;;;79.00;32.55;;;;;;;;;;5073509;28;20434;-39
2022/04/19 05:58:23;;;;;;;75.38;34.53;;;;;;;;;;5073266;28;20048;-39
2022/04/19 06:00:49;;;;;;;70.18;31.92;;;;;;;;;;5073409;28;20040;-42
2022/04/19 06:06:00;;;;;;;41.85;18.40;;;;;;;;;;5073421;28;20048;-39
2022/04/19 06:08:28;;;;;;;46.50;24.42;;;;;;;;;;5071705;28;20043;-40
2022/04/19 06:10:54;;;;;;;57.15;30.15;;;;;;;;;;5073458;28;20021;-39
2022/04/19 06:13:20;;;;;;;77.50;36.05;;;;;;;;;;5073233;28;20029;-39
2022/04/19 06:15:46;;;;;;;51.85;24.52;;;;;;;;;;5073274;28;20029;-40
2022/04/19 06:18:12;;;;;;;46.63;22.48;;;;;;;;;;5073276;28;20493;-40
2022/04/19 06:20:38;;;;;;;53.05;23.42;;;;;;;;;;5073030;28;20099;-39
2022/04/19 06:23:04;;;;;;;49.28;24.45;;;;;;;;;;5073332;28;20021;-38
2022/04/19 06:25:31;;;;;;;36.35;20.80;;;;;;;;;;5073221;28;20066;-38
2022/04/19 06:27:57;;;;;;;26.33;14.65;;;;;;;;;;5071179;28;20482;-38
2022/04/19 06:30:25;;;;;;;25.30;13.48;;;;;;;;;;5053830;28;20032;-37
2022/04/19 06:32:52;;;;;;;31.48;17.80;;;;;;;;;;5052480;28;20029;-41
2022/04/19 06:35:18;;;;;;;49.53;23.63;;;;;;;;;;5052439;28;20090;-39
2022/04/19 06:37:44;;;;;;;35.38;18.38;;;;;;;;;;5051871;28;20032;-39
2022/04/19 06:40:11;;;;;;;26.45;15.13;;;;;;;;;;5052317;28;20100;-39
2022/04/19 06:42:37;;;;;;;25.55;14.40;;;;;;;;;;5050907;28;20539;-39
2022/04/19 06:45:05;;;;;;;23.83;12.40;;;;;;;;;;5051928;28;20029;-41
2022/04/19 06:47:34;;;;;;;21.40;12.13;;;;;;;;;;5052332;28;20019;-38
2022/04/19 06:50:00;;;;;;;13.30;9.38;;;;;;;;;;5052082;28;20552;-38
2022/04/19 06:52:26;;;;;;;13.15;8.82;;;;;;;;;;5051561;28;20469;-43
2022/04/19 06:54:52;;;;;;;13.65;7.65;;;;;;;;;;5052356;28;20483;-37
2022/04/19 06:57:18;;;;;;;12.70;8.65;;;;;;;;;;5052168;28;20025;-40
2022/04/19 06:59:44;;;;;;;11.75;7.47;;;;;;;;;;5051792;28;20408;-39
2022/04/19 07:02:10;;;;;;;12.95;7.60;;;;;;;;;;5051454;28;20032;-38
2022/04/19 07:04:43;;;;;;;23.05;12.85;;;;;;;;;;5055147;28;20025;-39
2022/04/19 07:07:09;;;;;;;28.08;15.27;;;;;;;;;;5056134;28;20100;-39
2022/04/19 07:09:35;;;;;;;31.58;18.77;;;;;;;;;;5055581;28;20100;-38
2022/04/19 07:12:02;;;;;;;16.95;10.77;;;;;;;;;;5056138;28;20499;-40
2022/04/19 07:14:28;;;;;;;23.17;13.82;;;;;;;;;;5055804;28;20082;-39
2022/04/19 07:16:54;;;;;;;14.05;7.20;;;;;;;;;;5055823;28;20082;-39
2022/04/19 07:19:20;;;;;;;13.38;8.00;;;;;;;;;;5055826;28;20132;-40
2022/04/19 07:27:16;;;;;;;10.60;7.00;;;;;;;;;;5055945;28;20036;-39
2022/04/19 07:29:42;;;;;;;8.32;5.53;;;;;;;;;;5056173;28;20021;-39
2022/04/19 07:32:08;;;;;;;8.63;5.20;;;;;;;;;;5056375;28;20456;-41
2022/04/19 07:34:34;;;;;;;6.78;4.82;;;;;;;;;;5055959;28;20025;-39
2022/04/19 07:37:01;;;;;;;9.35;6.20;;;;;;;;;;5056267;28;20056;-40
2022/04/19 07:39:27;;;;;;;11.23;5.93;;;;;;;;;;5056021;28;20049;-40
2022/04/19 07:41:55;;;;;;;11.32;6.88;;;;;;;;;;5056160;28;20025;-39
2022/04/19 07:44:22;;;;;;;20.77;11.73;;;;;;;;;;5055198;28;20079;-39
2022/04/19 07:46:50;;;;;;;31.30;15.63;;;;;;;;;;5054162;28;20507;-39
2022/04/19 07:49:16;;;;;;;21.95;12.73;;;;;;;;;;5055285;28;20119;-39
2022/04/19 07:51:43;;;;;;;13.60;7.32;;;;;;;;;;5055462;28;21415;-40
2022/04/19 07:54:09;;;;;;;12.20;7.13;;;;;;;;;;5052852;28;20033;-39
2022/04/19 07:56:35;;;;;;;8.93;5.93;;;;;;;;;;5055341;28;20024;-41
2022/04/19 07:59:01;;;;;;;10.20;6.30;;;;;;;;;;5055094;28;20033;-40
2022/04/19 08:01:27;;;;;;;14.88;7.72;;;;;;;;;;5055051;28;20024;-39
2022/04/19 08:03:53;;;;;;;39.75;21.75;;;;;;;;;;5055177;28;20495;-42
2022/04/19 08:06:20;;;;;;;10.27;6.38;;;;;;;;;;5055194;28;20044;-39
2022/04/19 08:08:46;;;;;;;11.73;7.18;;;;;;;;;;5055097;28;20029;-40
2022/04/19 08:11:12;;;;;;;13.63;8.25;;;;;;;;;;5054991;28;20021;-39
2022/04/19 08:13:38;;;;;;;23.75;9.68;;;;;;;;;;5055149;28;20021;-39
2022/04/19 08:16:05;;;;;;;10.02;6.05;;;;;;;;;;5053822;28;20032;-42
2022/04/19 08:18:32;;;;;;;15.88;7.97;;;;;;;;;;5053355;28;20068;-39
2022/04/19 08:20:58;;;;;;;13.55;8.55;;;;;;;;;;5054783;28;20055;-40
2022/04/19 08:23:24;;;;;;;11.60;7.05;;;;;;;;;;5054953;28;20018;-40
2022/04/19 08:25:50;;;;;;;25.45;12.70;;;;;;;;;;5054839;28;20021;-40
2022/04/19 08:28:16;;;;;;;69.18;37.05;;;;;;;;;;5054656;28;20044;-39
2022/04/19 08:30:42;;;;;;;41.28;20.00;;;;;;;;;;5054902;28;20013;-39
2022/04/19 08:33:08;;;;;;;49.08;27.50;;;;;;;;;;5054726;28;20029;-41
2022/04/19 08:35:34;;;;;;;66.55;38.50;;;;;;;;;;5055119;28;20024;-41
2022/04/19 08:38:00;;;;;;;45.58;22.88;;;;;;;;;;5055017;28;20040;-39
2022/04/19 08:40:27;;;;;;;18.58;10.82;;;;;;;;;;5054272;28;20031;-38
2022/04/19 08:42:57;;;;;;;12.13;7.80;;;;;;;;;;5054530;28;20016;-39
2022/04/19 08:45:26;;;;;;;16.27;10.02;;;;;;;;;;5054341;28;20032;-39
2022/04/19 08:47:52;;;;;;;22.20;13.13;;;;;;;;;;5054497;28;20044;-38
2022/04/19 08:50:19;;;;;;;24.92;15.25;;;;;;;;;;5054272;28;20064;-39
2022/04/19 08:52:46;;;;;;;22.25;12.68;;;;;;;;;;5054259;28;20017;-39
2022/04/19 08:58:00;;;;;;;33.90;20.70;;;;;;;;;;5052015;28;20067;-43
2022/04/19 09:00:27;;;;;;;37.58;21.70;;;;;;;;;;5054259;28;20036;-43
2022/04/19 09:02:55;;;;;;;40.85;21.77;;;;;;;;;;5054674;28;20025;-41
2022/04/19 09:05:26;;;;;;;46.08;27.98;;;;;;;;;;5051523;28;20023;-41
2022/04/19 09:07:53;;;;;;;43.58;25.17;;;;;;;;;;5053794;28;20017;-43
2022/04/19 09:10:30;;;;;;;26.88;16.85;;;;;;;;;;5054001;28;20568;-42
2022/04/19 09:13:09;;;;;;;21.52;13.43;;;;;;;;;;5051445;28;20029;-40
2022/04/19 09:15:35;;;;;;;47.10;26.75;;;;;;;;;;5053717;28;20048;-42
2022/04/19 09:18:01;;;;;;;33.92;18.77;;;;;;;;;;5053660;28;20028;-41
2022/04/19 09:20:28;;;;;;;41.72;24.55;;;;;;;;;;5054245;28;20064;-43
2022/04/19 09:23:01;;;;;;;106.85;59.22;;;;;;;;;;5054056;28;20464;-41
2022/04/19 09:25:27;;;;;;;31.27;18.15;;;;;;;;;;5054299;28;20037;-39
2022/04/19 09:27:57;;;;;;;31.45;19.25;;;;;;;;;;5053788;28;20480;-41
2022/04/19 09:30:34;;;;;;;54.85;31.95;;;;;;;;;;5054076;28;20059;-42
2022/04/19 09:33:01;;;;;;;40.05;22.65;;;;;;;;;;5052618;28;20033;-40
2022/04/19 09:35:28;;;;;;;39.78;22.63;;;;;;;;;;5054043;28;20079;-44
2022/04/19 09:37:55;;;;;;;20.95;13.20;;;;;;;;;;5053568;28;20029;-43
2022/04/19 09:40:27;;;;;;;11.45;7.25;;;;;;;;;;5053126;28;20029;-41
2022/04/19 09:42:57;;;;;;;16.80;10.02;;;;;;;;;;5053841;28;20021;-40
2022/04/19 09:45:28;;;;;;;14.55;9.15;;;;;;;;;;5053920;28;20025;-38
2022/04/19 09:47:55;;;;;;;46.40;22.05;;;;;;;;;;5053584;28;20033;-41
2022/04/19 09:50:21;;;;;;;28.58;15.45;;;;;;;;;;5053514;28;20493;-42
2022/04/19 09:52:51;;;;;;;37.97;20.83;;;;;;;;;;5052697;28;20033;-41
2022/04/19 09:55:18;;;;;;;21.38;12.52;;;;;;;;;;5053107;28;20029;-42
2022/04/19 09:57:45;;;;;;;32.28;17.00;;;;;;;;;;5053092;28;20029;-43
2022/04/19 10:00:12;;;;;;;26.52;14.45;;;;;;;;;;5052902;28;20090;-41
2022/04/19 10:08:21;;;;;;;26.58;14.45;;;;;;;;;;5051080;28;20036;-42
2022/04/19 10:10:48;;;;;;;24.90;13.60;;;;;;;;;;5051065;28;20033;-43
2022/04/19 10:13:17;;;;;;;15.35;8.57;;;;;;;;;;5053130;28;20068;-40
2022/04/19 10:15:43;;;;;;;32.05;15.90;;;;;;;;;;5052632;28;20032;-41
2022/04/19 10:18:10;;;;;;;15.25;8.73;;;;;;;;;;5053181;28;20040;-43
2022/04/19 10:21:04;;;;;;;17.95;9.85;;;;;;;;;;5053344;28;20496;-42
2022/04/19 10:23:38;;;;;;;14.50;7.88;;;;;;;;;;5052063;28;20082;-44
2022/04/19 10:26:14;;;;;;;10.30;5.97;;;;;;;;;;5053376;28;20029;-42
2022/04/19 10:28:45;;;;;;;22.27;11.02;;;;;;;;;;5053158;28;20033;-44
2022/04/19 10:31:11;;;;;;;13.23;7.22;;;;;;;;;;5052861;28;20028;-41
2022/04/19 10:33:50;;;;;;;14.00;8.15;;;;;;;;;;5053039;28;20021;-43
2022/04/19 10:36:43;;;;;;;34.72;18.70;;;;;;;;;;5053038;28;20032;-42
2022/04/19 10:39:12;;;;;;;33.30;18.23;;;;;;;;;;5054156;28;20055;-42
2022/04/19 10:41:53;;;;;;;18.90;10.45;;;;;;;;;;5056547;28;20044;-41
2022/04/19 10:44:23;;;;;;;24.75;13.50;;;;;;;;;;5054461;28;20036;-43
2022/04/19 10:47:11;;;;;;;24.52;13.02;;;;;;;;;;5056853;28;20377;-40
2022/04/19 10:49:58;;;;;;;14.07;7.68;;;;;;;;;;5052331;28;20049;-40
2022/04/19 10:52:44;;;;;;;27.50;10.35;;;;;;;;;;5037059;28;20060;-40
2022/04/19 10:55:16;;;;;;;30.80;11.80;;;;;;;;;;5037060;28;20109;-38
2022/04/19 11:00:35;;;;;;;16.63;6.47;;;;;;;;;;5037096;28;20147;-41
2022/04/19 11:03:11;;;;;;;31.38;9.98;;;;;;;;;;5054047;28;20025;-45
2022/04/19 11:05:43;;;;;;;22.90;10.95;;;;;;;;;;5056204;28;20473;-40
2022/04/19 11:08:25;;;;;;;20.85;8.60;;;;;;;;;;5056226;28;20059;-44
2022/04/19 11:10:51;;;;;;;18.83;5.85;;;;;;;;;;5055671;28;20021;-42
2022/04/19 11:13:17;;;;;;;14.63;6.55;;;;;;;;;;5056235;28;20021;-46
2022/04/19 11:15:44;;;;;;;31.40;11.63;;;;;;;;;;5056483;28;20029;-41
2022/04/19 11:18:42;;;;;;;10.13;4.72;;;;;;;;;;5056212;28;20052;-39
2022/04/19 11:21:11;;;;;;;13.73;6.07;;;;;;;;;;5034227;28;20037;-45
2022/04/19 11:23:45;;;;;;;29.33;10.85;;;;;;;;;;5033752;28;20509;-42
2022/04/19 11:26:30;;;;;;;17.70;9.68;;;;;;;;;;5034072;28;20041;-42
2022/04/19 11:29:08;;;;;;;13.13;6.20;;;;;;;;;;5033747;28;20052;-41
2022/04/19 11:31:34;;;;;;;6.95;4.13;;;;;;;;;;5033982;28;20048;-42
2022/04/19 11:34:00;;;;;;;18.40;8.13;;;;;;;;;;5033026;28;20053;-45
2022/04/19 11:36:29;;;;;;;20.50;9.18;;;;;;;;;;5014408;28;20034;-44
2022/04/19 11:38:55;;;;;;;10.73;5.63;;;;;;;;;;5031778;28;20038;-43
2022/04/19 11:46:45;;;;;;;14.27;6.10;;;;;;;;;;5033554;28;20033;-42
2022/04/19 11:49:17;;;;;;;14.45;6.75;;;;;;;;;;5033179;28;20061;-43
2022/04/19 11:52:02;;;;;;;18.83;8.30;;;;;;;;;;5033308;28;20032;-42
2022/04/19 11:54:32;;;;;;;7.50;4.60;;;;;;;;;;5033378;28;20547;-45
2022/04/19 11:57:08;;;;;;;10.63;5.45;;;;;;;;;;5039709;28;20036;-46
2022/04/19 11:59:39;;;;;;;8.95;5.43;;;;;;;;;;5053565;28;20473;-42
2022/04/19 12:02:13;;;;;;;10.87;5.60;;;;;;;;;;5054998;28;20029;-43
2022/04/19 12:04:48;;;;;;;10.60;5.53;;;;;;;;;;5055174;28;20108;-44
2022/04/19 12:07:14;;;;;;;7.05;5.10;;;;;;;;;;5053154;28;20021;-44
2022/04/19 12:09:42;;;;;;;7.18;4.68;;;;;;;;;;5055176;28;20017;-43
2022/04/19 12:12:10;;;;;;;8.20;5.07;;;;;;;;;;5055077;28;20067;-42
2022/04/19 12:14:36;;;;;;;10.50;4.72;;;;;;;;;;5055023;28;20024;-44
2022/04/19 12:17:06;;;;;;;6.57;4.07;;;;;;;;;;5054823;28;20436;-43
2022/04/19 12:19:40;;;;;;;12.75;5.68;;;;;;;;;;5055554;28;20060;-42
2022/04/19 12:22:24;;;;;;;11.55;5.55;;;;;;;;;;5054148;28;20029;-45
2022/04/19 12:24:53;;;;;;;10.32;5.45;;;;;;;;;;5055444;28;20044;-48
2022/04/19 12:27:27;;;;;;;15.30;5.22;;;;;;;;;;5054787;28;20033;-40
2022/04/19 12:29:59;;;;;;;9.65;6.07;;;;;;;;;;5054752;28;20022;-41
2022/04/19 12:32:26;;;;;;;10.35;6.00;;;;;;;;;;5052107;28;20021;-41
2022/04/19 12:35:06;;;;;;;9.13;4.43;;;;;;;;;;5054655;28;20017;-42
2022/04/19 12:37:32;;;;;;;11.20;6.68;;;;;;;;;;5053145;28;20025;-40
2022/04/19 12:39:59;;;;;;;9.48;5.68;;;;;;;;;;5053562;28;20359;-39
2022/04/19 12:42:25;;;;;;;11.60;4.93;;;;;;;;;;5054905;28;20469;-43
2022/04/19 12:45:03;;;;;;;7.10;4.90;;;;;;;;;;5054616;28;20116;-38
2022/04/19 12:47:29;;;;;;;14.50;7.38;;;;;;;;;;5054921;28;20021;-41
2022/04/19 12:49:56;;;;;;;18.13;10.05;;;;;;;;;;5054568;28;20143;-40
2022/04/19 12:52:30;;;;;;;23.70;11.13;;;;;;;;;;5053505;28;20025;-38
2022/04/19 12:55:01;;;;;;;24.05;11.38;;;;;;;;;;5054896;28;20025;-44
2022/04/19 12:57:27;;;;;;;21.13;11.82;;;;;;;;;;5054808;28;20112;-44
2022/04/19 12:59:53;;;;;;;17.45;10.77;;;;;;;;;;5054454;28;20543;-42
2022/04/19 13:02:20;;;;;;;15.30;8.82;;;;;;;;;;5053913;28;20028;-39
2022/04/19 13:04:49;;;;;;;16.58;9.35;;;;;;;;;;5053199;28;20094;-39
2022/04/19 13:12:45;;;;;;;17.65;8.82;;;;;;;;;;5054681;28;20032;-39
2022/04/19 13:15:12;;;;;;;23.77;12.00;;;;;;;;;;5054399;28;20021;-39
2022/04/19 13:17:41;;;;;;;29.23;14.98;;;;;;;;;;5054341;28;20530;-40
2022/04/19 13:20:08;;;;;;;17.85;10.30;;;;;;;;;;5052911;28;20048;-38
2022/04/19 13:22:35;;;;;;;29.63;14.85;;;;;;;;;;5053905;28;20036;-43
2022/04/19 13:25:01;;;;;;;24.75;13.68;;;;;;;;;;5054249;28;20029;-40
2022/04/19 13:27:29;;;;;;;22.83;12.70;;;;;;;;;;5054153;28;20017;-38
2022/04/19 13:29:55;;;;;;;34.58;17.63;;;;;;;;;;5053822;28;20080;-37
2022/04/19 13:32:21;;;;;;;14.15;9.05;;;;;;;;;;5053955;28;20529;-38
2022/04/19 13:34:47;;;;;;;5.78;4.38;;;;;;;;;;5053742;28;20029;-38
2022/04/19 13:37:16;;;;;;;16.20;10.05;;;;;;;;;;5052826;28;20037;-37
2022/04/19 13:39:42;;;;;;;25.63;13.65;;;;;;;;;;5053642;28;20065;-38
2022/04/19 13:42:10;;;;;;;41.58;22.88;;;;;;;;;;5053978;28;20025;-38
2022/04/19 13:44:36;;;;;;;31.45;15.88;;;;;;;;;;5053950;28;20598;-39
2022/04/19 13:47:02;;;;;;;21.52;11.35;;;;;;;;;;5053781;28;20047;-39
2022/04/19 13:49:28;;;;;;;19.98;9.63;;;;;;;;;;5053412;28;20456;-39
2022/04/19 13:51:58;;;;;;;15.27;8.02;;;;;;;;;;5053633;28;20024;-38
2022/04/19 13:54:24;;;;;;;17.10;9.32;;;;;;;;;;5053673;28;20025;-37
2022/04/19 13:56:50;;;;;;;33.58;16.30;;;;;;;;;;5053752;28;20120;-38
2022/04/19 13:59:17;;;;;;;19.42;10.57;;;;;;;;;;5053339;28;20037;-38
2022/04/19 14:01:43;;;;;;;33.13;17.48;;;;;;;;;;5053425;28;20103;-38
2022/04/19 14:04:10;;;;;;;22.88;11.52;;;;;;;;;;5052193;28;20021;-47
2022/04/19 14:06:38;;;;;;;24.17;13.32;;;;;;;;;;5053521;28;20017;-46
2022/04/19 14:09:05;;;;;;;22.10;12.30;;;;;;;;;;5053342;28;20029;-38
2022/04/19 14:11:34;;;;;;;28.55;16.95;;;;;;;;;;5053358;28;20021;-38
2022/04/19 14:14:01;;;;;;;14.60;9.85;;;;;;;;;;5052697;28;20024;-39
2022/04/19 14:16:28;;;;;;;17.33;8.85;;;;;;;;;;5052776;28;20025;-37
2022/04/19 14:18:54;;;;;;;16.75;8.70;;;;;;;;;;5051528;28;20044;-43
2022/04/19 14:21:20;;;;;;;23.40;14.85;;;;;;;;;;5053421;28;20170;-45
2022/04/19 14:23:47;;;;;;;16.83;8.43;;;;;;;;;;5053108;28;20029;-44
2022/04/19 14:26:13;;;;;;;16.85;9.77;;;;;;;;;;5053312;28;20025;-46
2022/04/19 14:34:10;;;;;;;32.90;16.60;;;;;;;;;;5053317;28;20035;-46
2022/04/19 14:36:36;;;;;;;18.10;10.02;;;;;;;;;;5053032;28;20465;-46
2022/04/19 14:39:02;;;;;;;19.80;10.60;;;;;;;;;;5047248;28;20044;-45
2022/04/19 14:41:28;;;;;;;17.33;9.70;;;;;;;;;;5022087;28;20032;-44
2022/04/19 14:43:55;;;;;;;13.43;6.45;;;;;;;;;;5020362;28;20025;-46
2022/04/19 14:46:21;;;;;;;21.30;11.25;;;;;;;;;;5020425;28;20028;-44
2022/04/19 14:48:47;;;;;;;26.42;14.05;;;;;;;;;;5021929;28;20380;-43
2022/04/19 14:53:57;;;;;;;26.25;14.00;;;;;;;;;;5021870;28;20071;-42
2022/04/19 14:56:23;;;;;;;33.63;15.40;;;;;;;;;;5020785;28;20376;-43
2022/04/19 14:58:50;;;;;;;18.38;10.27;;;;;;;;;;5020338;28;20156;-43
2022/04/19 15:01:17;;;;;;;14.00;9.15;;;;;;;;;;5020290;28;20431;-42
2022/04/19 15:03:43;;;;;;;21.23;11.00;;;;;;;;;;5020390;28;20030;-44
2022/04/19 15:06:09;;;;;;;15.18;9.05;;;;;;;;;;5021636;28;20136;-43
2022/04/19 15:08:35;;;;;;;16.30;10.35;;;;;;;;;;5020459;28;20028;-39
2022/04/19 15:11:01;;;;;;;17.15;10.57;;;;;;;;;;5020014;28;20116;-45
2022/04/19 15:13:28;;;;;;;24.13;14.73;;;;;;;;;;5020427;28;20584;-44
2022/04/19 15:15:56;;;;;;;44.35;23.30;;;;;;;;;;5021251;28;20064;-45